Terminal Aerodrome Forecast
Issued by NWS Bismarck, ND

Home | Current Version | Previous Version | Text Only | Print | Product List | Glossary Off
Versions: 1 2 3 4 5 6 7 8 9 10 11 12 13 14 15 16 17 18 19 20 21 22 23 24 25 26

000
FTUS43 KBIS 250000 AAB
TAFISN
TAF AMD
KISN 250002Z 2500/2524 19005KT 6SM -SN BKN018
      TEMPO 2500/2504 3SM -SN
     FM251100 16006KT 4SM -SN OVC012
     FM251700 23010KT 1SM -SN OVC009
     FM252100 31013G23KT P6SM OVC012=

USA.gov is the U.S. government's official web portal to all federal, state and local government web resources and services.